sensor_id;sensor_type;location;lat;lon;timestamp;pressure;altitude;pressure_sealevel;temperature;humidity
69784;BME280;57054;51.978;4.498;2023-10-08T00:00:47;102347.03;;;17.41;100.00
69784;BME280;57054;51.978;4.498;2023-10-08T00:03:19;102329.41;;;17.40;100.00
69784;BME280;57054;51.978;4.498;2023-10-08T00:05:46;102348.84;;;17.41;100.00
69784;BME280;57054;51.978;4.498;2023-10-08T00:08:12;102345.38;;;17.39;100.00
69784;BME280;57054;51.978;4.498;2023-10-08T00:10:40;102338.38;;;17.38;100.00
69784;BME280;57054;51.978;4.498;2023-10-08T00:13:10;102346.31;;;17.38;100.00
69784;BME280;57054;51.978;4.498;2023-10-08T00:15:36;102339.28;;;17.37;100.00
69784;BME280;57054;51.978;4.498;2023-10-08T00:18:05;102348.97;;;17.38;100.00
69784;BME280;57054;51.978;4.498;2023-10-08T00:20:35;102356.91;;;17.38;100.00
69784;BME280;57054;51.978;4.498;2023-10-08T00:23:08;102343.66;;;17.38;100.00
69784;BME280;57054;51.978;4.498;2023-10-08T00:25:34;102338.38;;;17.38;100.00
69784;BME280;57054;51.978;4.498;2023-10-08T00:28:06;102325.19;;;17.36;100.00
69784;BME280;57054;51.978;4.498;2023-10-08T00:30:37;102327.91;;;17.35;100.00
69784;BME280;57054;51.978;4.498;2023-10-08T00:33:04;102327.00;;;17.36;100.00
69784;BME280;57054;51.978;4.498;2023-10-08T00:35:30;102323.56;;;17.34;100.00
69784;BME280;57054;51.978;4.498;2023-10-08T00:37:55;102315.69;;;17.32;100.00
69784;BME280;57054;51.978;4.498;2023-10-08T00:40:35;102305.09;;;17.32;100.00
69784;BME280;57054;51.978;4.498;2023-10-08T00:43:01;102304.22;;;17.32;100.00
69784;BME280;57054;51.978;4.498;2023-10-08T00:45:29;102296.28;;;17.32;100.00
69784;BME280;57054;51.978;4.498;2023-10-08T00:47:56;102292.78;;;17.31;100.00
69784;BME280;57054;51.978;4.498;2023-10-08T00:50:22;102288.44;;;17.30;100.00
69784;BME280;57054;51.978;4.498;2023-10-08T00:52:56;102285.84;;;17.29;100.00
69784;BME280;57054;51.978;4.498;2023-10-08T00:55:25;102292.06;;;17.27;100.00
69784;BME280;57054;51.978;4.498;2023-10-08T00:57:58;102296.56;;;17.25;100.00
69784;BME280;57054;51.978;4.498;2023-10-08T01:02:54;102307.16;;;17.25;100.00
69784;BME280;57054;51.978;4.498;2023-10-08T01:05:29;102326.69;;;17.23;100.00
69784;BME280;57054;51.978;4.498;2023-10-08T01:08:15;102321.47;;;17.21;100.00
69784;BME280;57054;51.978;4.498;2023-10-08T01:10:59;102330.31;;;17.20;100.00
69784;BME280;57054;51.978;4.498;2023-10-08T01:13:26;102327.69;;;17.20;100.00
69784;BME280;57054;51.978;4.498;2023-10-08T01:15:52;102334.84;;;17.18;100.00
69784;BME280;57054;51.978;4.498;2023-10-08T01:18:18;102315.44;;;17.18;100.00
69784;BME280;57054;51.978;4.498;2023-10-08T01:20:54;102321.66;;;17.17;100.00
69784;BME280;57054;51.978;4.498;2023-10-08T01:23:19;102329.59;;;17.17;100.00
69784;BME280;57054;51.978;4.498;2023-10-08T01:25:47;102330.59;;;17.14;100.00
69784;BME280;57054;51.978;4.498;2023-10-08T01:28:18;102303.34;;;17.12;100.00
69784;BME280;57054;51.978;4.498;2023-10-08T01:30:57;102310.41;;;17.12;100.00
69784;BME280;57054;51.978;4.498;2023-10-08T01:33:26;102314.00;;;17.11;100.00
69784;BME280;57054;51.978;4.498;2023-10-08T01:35:55;102313.22;;;17.08;100.00
69784;BME280;57054;51.978;4.498;2023-10-08T01:38:20;102317.72;;;17.06;100.00
69784;BME280;57054;51.978;4.498;2023-10-08T01:40:50;102317.78;;;17.05;100.00
69784;BME280;57054;51.978;4.498;2023-10-08T01:43:17;102329.34;;;17.02;100.00
69784;BME280;57054;51.978;4.498;2023-10-08T01:45:43;102332.00;;;17.02;100.00
69784;BME280;57054;51.978;4.498;2023-10-08T01:48:12;102334.75;;;17.01;100.00
69784;BME280;57054;51.978;4.498;2023-10-08T01:50:37;102334.81;;;16.99;100.00
69784;BME280;57054;51.978;4.498;2023-10-08T01:53:04;102343.66;;;16.98;100.00
69784;BME280;57054;51.978;4.498;2023-10-08T01:55:32;102353.44;;;16.96;100.00
69784;BME280;57054;51.978;4.498;2023-10-08T01:58:11;102364.94;;;16.95;100.00
69784;BME280;57054;51.978;4.498;2023-10-08T02:00:42;102372.03;;;16.95;100.00
69784;BME280;57054;51.978;4.498;2023-10-08T02:03:07;102370.34;;;16.94;100.00
69784;BME280;57054;51.978;4.498;2023-10-08T02:05:33;102360.72;;;16.91;100.00
69784;BME280;57054;51.978;4.498;2023-10-08T02:07:59;102365.94;;;16.93;100.00
69784;BME280;57054;51.978;4.498;2023-10-08T02:10:24;102372.16;;;16.92;100.00
69784;BME280;57054;51.978;4.498;2023-10-08T02:12:50;102365.03;;;16.94;100.00
69784;BME280;57054;51.978;4.498;2023-10-08T02:15:15;102363.25;;;16.94;100.00
69784;BME280;57054;51.978;4.498;2023-10-08T02:17:41;102354.53;;;16.92;100.00
69784;BME280;57054;51.978;4.498;2023-10-08T02:20:08;102353.56;;;16.93;100.00
69784;BME280;57054;51.978;4.498;2023-10-08T02:22:34;102356.22;;;16.93;100.00
69784;BME280;57054;51.978;4.498;2023-10-08T02:24:59;102351.81;;;16.94;100.00
69784;BME280;57054;51.978;4.498;2023-10-08T02:27:28;102348.28;;;16.93;100.00
69784;BME280;57054;51.978;4.498;2023-10-08T02:29:54;102339.44;;;16.94;100.00
69784;BME280;57054;51.978;4.498;2023-10-08T02:32:20;102341.22;;;16.94;100.00
69784;BME280;57054;51.978;4.498;2023-10-08T02:34:48;102343.00;;;16.93;100.00
69784;BME280;57054;51.978;4.498;2023-10-08T02:37:13;102349.22;;;16.92;100.00
69784;BME280;57054;51.978;4.498;2023-10-08T02:39:40;102350.13;;;16.91;100.00
69784;BME280;57054;51.978;4.498;2023-10-08T02:42:05;102361.66;;;16.90;100.00
69784;BME280;57054;51.978;4.498;2023-10-08T02:44:36;102358.13;;;16.89;100.00
69784;BME280;57054;51.978;4.498;2023-10-08T02:47:09;102357.28;;;16.89;100.00
69784;BME280;57054;51.978;4.498;2023-10-08T02:49:46;102358.19;;;16.88;100.00
69784;BME280;57054;51.978;4.498;2023-10-08T02:52:14;102362.63;;;16.87;100.00
69784;BME280;57054;51.978;4.498;2023-10-08T02:54:41;102354.69;;;16.87;100.00
69784;BME280;57054;51.978;4.498;2023-10-08T02:57:06;102353.84;;;16.87;100.00
69784;BME280;57054;51.978;4.498;2023-10-08T02:59:39;102361.00;;;16.85;100.00
69784;BME280;57054;51.978;4.498;2023-10-08T03:02:11;102354.94;;;16.81;100.00
69784;BME280;57054;51.978;4.498;2023-10-08T03:04:44;102358.50;;;16.80;100.00
69784;BME280;57054;51.978;4.498;2023-10-08T03:07:14;102356.00;;;16.77;100.00
69784;BME280;57054;51.978;4.498;2023-10-08T03:09:47;102355.19;;;16.75;100.00
69784;BME280;57054;51.978;4.498;2023-10-08T03:12:15;102358.78;;;16.74;100.00
69784;BME280;57054;51.978;4.498;2023-10-08T03:14:42;102355.34;;;16.72;100.00
69784;BME280;57054;51.978;4.498;2023-10-08T03:17:15;102345.63;;;16.73;100.00
69784;BME280;57054;51.978;4.498;2023-10-08T03:19:48;102352.69;;;16.72;100.00
69784;BME280;57054;51.978;4.498;2023-10-08T03:22:13;102348.31;;;16.71;100.00
69784;BME280;57054;51.978;4.498;2023-10-08T03:24:44;102365.13;;;16.70;100.00
69784;BME280;57054;51.978;4.498;2023-10-08T03:27:12;102360.03;;;16.65;100.00
69784;BME280;57054;51.978;4.498;2023-10-08T03:29:46;102366.31;;;16.63;100.00
69784;BME280;57054;51.978;4.498;2023-10-08T03:32:12;102375.09;;;16.63;100.00
69784;BME280;57054;51.978;4.498;2023-10-08T03:34:47;102375.16;;;16.62;100.00
69784;BME280;57054;51.978;4.498;2023-10-08T03:37:18;102386.75;;;16.59;100.00
69784;BME280;57054;51.978;4.498;2023-10-08T03:39:50;102384.16;;;16.58;100.00
69784;BME280;57054;51.978;4.498;2023-10-08T03:42:56;102392.19;;;16.55;100.00
69784;BME280;57054;51.978;4.498;2023-10-08T03:45:21;102383.47;;;16.53;100.00
69784;BME280;57054;51.978;4.498;2023-10-08T03:48:05;102396.75;;;16.51;100.00
69784;BME280;57054;51.978;4.498;2023-10-08T03:50:31;102392.41;;;16.50;100.00
69784;BME280;57054;51.978;4.498;2023-10-08T03:53:06;102389.81;;;16.48;100.00
69784;BME280;57054;51.978;4.498;2023-10-08T03:55:40;102400.41;;;16.48;100.00
69784;BME280;57054;51.978;4.498;2023-10-08T03:58:08;102401.38;;;16.46;100.00
69784;BME280;57054;51.978;4.498;2023-10-08T04:00:53;102399.66;;;16.45;100.00
69784;BME280;57054;51.978;4.498;2023-10-08T04:03:33;102405.88;;;16.44;100.00
69784;BME280;57054;51.978;4.498;2023-10-08T04:06:28;102406.88;;;16.41;100.00
69784;BME280;57054;51.978;4.498;2023-10-08T04:08:59;102413.06;;;16.40;100.00
69784;BME280;57054;51.978;4.498;2023-10-08T04:11:34;102423.78;;;16.37;100.00
69784;BME280;57054;51.978;4.498;2023-10-08T04:14:15;102435.38;;;16.33;100.00
69784;BME280;57054;51.978;4.498;2023-10-08T04:16:43;102432.78;;;16.31;100.00
69784;BME280;57054;51.978;4.498;2023-10-08T04:19:10;102429.28;;;16.31;100.00
69784;BME280;57054;51.978;4.498;2023-10-08T04:21:36;102432.00;;;16.29;100.00
69784;BME280;57054;51.978;4.498;2023-10-08T04:24:02;102439.00;;;16.30;100.00
69784;BME280;57054;51.978;4.498;2023-10-08T04:26:34;102442.63;;;16.28;100.00
69784;BME280;57054;51.978;4.498;2023-10-08T04:29:01;102441.75;;;16.27;100.00
69784;BME280;57054;51.978;4.498;2023-10-08T04:31:30;102436.53;;;16.26;100.00
69784;BME280;57054;51.978;4.498;2023-10-08T04:34:06;102428.53;;;16.27;100.00
69784;BME280;57054;51.978;4.498;2023-10-08T04:36:44;102431.19;;;16.27;100.00
69784;BME280;57054;51.978;4.498;2023-10-08T04:39:19;102422.47;;;16.25;100.00
69784;BME280;57054;51.978;4.498;2023-10-08T04:41:52;102432.97;;;16.27;100.00
69784;BME280;57054;51.978;4.498;2023-10-08T04:44:25;102425.91;;;16.27;100.00
69784;BME280;57054;51.978;4.498;2023-10-08T04:46:51;102434.69;;;16.28;100.00
69784;BME280;57054;51.978;4.498;2023-10-08T04:49:18;102439.13;;;16.27;100.00
69784;BME280;57054;51.978;4.498;2023-10-08T04:51:54;102434.78;;;16.26;100.00
69784;BME280;57054;51.978;4.498;2023-10-08T04:54:26;102442.75;;;16.25;100.00
69784;BME280;57054;51.978;4.498;2023-10-08T04:56:59;102455.97;;;16.25;100.00
69784;BME280;57054;51.978;4.498;2023-10-08T04:59:28;102452.59;;;16.21;100.00
69784;BME280;57054;51.978;4.498;2023-10-08T05:02:00;102459.63;;;16.21;100.00
69784;BME280;57054;51.978;4.498;2023-10-08T05:04:37;102443.91;;;16.18;100.00
69784;BME280;57054;51.978;4.498;2023-10-08T05:07:18;102439.53;;;16.17;100.00
69784;BME280;57054;51.978;4.498;2023-10-08T05:10:05;102436.16;;;16.13;100.00
69784;BME280;57054;51.978;4.498;2023-10-08T05:12:31;102407.09;;;16.13;100.00
69784;BME280;57054;51.978;4.498;2023-10-08T05:15:06;102410.59;;;16.14;100.00
69784;BME280;57054;51.978;4.498;2023-10-08T05:17:48;102420.44;;;16.10;100.00
69784;BME280;57054;51.978;4.498;2023-10-08T05:20:17;102425.72;;;16.10;100.00
69784;BME280;57054;51.978;4.498;2023-10-08T05:23:01;102438.31;;;16.03;100.00
69784;BME280;57054;51.978;4.498;2023-10-08T05:25:45;102441.84;;;16.02;100.00
69784;BME280;57054;51.978;4.498;2023-10-08T05:28:26;102436.50;;;16.04;100.00
69784;BME280;57054;51.978;4.498;2023-10-08T05:30:53;102450.78;;;16.00;100.00
69784;BME280;57054;51.978;4.498;2023-10-08T05:33:20;102440.19;;;16.00;100.00
69784;BME280;57054;51.978;4.498;2023-10-08T05:36:12;102443.69;;;16.00;100.00
69784;BME280;57054;51.978;4.498;2023-10-08T05:38:43;102435.75;;;16.00;100.00
69784;BME280;57054;51.978;4.498;2023-10-08T05:41:26;102430.47;;;16.00;100.00
69784;BME280;57054;51.978;4.498;2023-10-08T05:44:04;102431.41;;;15.99;100.00
69784;BME280;57054;51.978;4.498;2023-10-08T05:46:45;102427.03;;;15.98;100.00
69784;BME280;57054;51.978;4.498;2023-10-08T05:49:19;102427.16;;;15.95;100.00
69784;BME280;57054;51.978;4.498;2023-10-08T05:51:57;102432.44;;;15.95;100.00
69784;BME280;57054;51.978;4.498;2023-10-08T05:54:28;102446.28;;;16.02;100.00
69784;BME280;57054;51.978;4.498;2023-10-08T05:57:08;102448.06;;;16.01;100.00
69784;BME280;57054;51.978;4.498;2023-10-08T06:02:24;102451.06;;;15.92;100.00
69784;BME280;57054;51.978;4.498;2023-10-08T06:05:03;102455.06;;;15.79;100.00
69784;BME280;57054;51.978;4.498;2023-10-08T06:07:52;102462.97;;;15.79;100.00
69784;BME280;57054;51.978;4.498;2023-10-08T06:10:28;102478.28;;;15.69;100.00
69784;BME280;57054;51.978;4.498;2023-10-08T06:13:03;102484.81;;;15.59;100.00
69784;BME280;57054;51.978;4.498;2023-10-08T06:18:12;102493.72;;;15.56;100.00
69784;BME280;57054;51.978;4.498;2023-10-08T06:20:40;102496.31;;;15.58;100.00
69784;BME280;57054;51.978;4.498;2023-10-08T06:23:09;102498.88;;;15.59;100.00
69784;BME280;57054;51.978;4.498;2023-10-08T06:25:37;102500.78;;;15.55;100.00
69784;BME280;57054;51.978;4.498;2023-10-08T06:28:27;102507.75;;;15.57;100.00
69784;BME280;57054;51.978;4.498;2023-10-08T06:30:53;102509.81;;;15.48;100.00
69784;BME280;57054;51.978;4.498;2023-10-08T06:33:21;102508.50;;;15.35;100.00
69784;BME280;57054;51.978;4.498;2023-10-08T06:35:47;102515.47;;;15.38;100.00
69784;BME280;57054;51.978;4.498;2023-10-08T06:38:28;102521.66;;;15.36;100.00
69784;BME280;57054;51.978;4.498;2023-10-08T06:40:59;102518.16;;;15.36;100.00
69784;BME280;57054;51.978;4.498;2023-10-08T06:43:28;102519.06;;;15.35;100.00
69784;BME280;57054;51.978;4.498;2023-10-08T06:45:54;102511.00;;;15.40;100.00
69784;BME280;57054;51.978;4.498;2023-10-08T06:48:24;102518.59;;;15.49;100.00
69784;BME280;57054;51.978;4.498;2023-10-08T06:50:51;102517.78;;;15.47;100.00
69784;BME280;57054;51.978;4.498;2023-10-08T06:53:17;102534.50;;;15.47;100.00
69784;BME280;57054;51.978;4.498;2023-10-08T06:55:47;102545.31;;;15.40;100.00
69784;BME280;57054;51.978;4.498;2023-10-08T06:58:25;102543.81;;;15.32;100.00
69784;BME280;57054;51.978;4.498;2023-10-08T07:00:51;102535.53;;;15.16;100.00
69784;BME280;57054;51.978;4.498;2023-10-08T07:03:17;102543.03;;;15.29;100.00
69784;BME280;57054;51.978;4.498;2023-10-08T07:05:47;102543.72;;;15.35;100.00
69784;BME280;57054;51.978;4.498;2023-10-08T07:08:27;102537.34;;;15.41;100.00
69784;BME280;57054;51.978;4.498;2023-10-08T07:10:54;102541.06;;;15.35;100.00
69784;BME280;57054;51.978;4.498;2023-10-08T07:13:22;102549.00;;;15.35;100.00
69784;BME280;57054;51.978;4.498;2023-10-08T07:15:52;102544.59;;;15.34;100.00
69784;BME280;57054;51.978;4.498;2023-10-08T07:18:18;102543.84;;;15.31;100.00
69784;BME280;57054;51.978;4.498;2023-10-08T07:20:56;102544.34;;;15.42;100.00
69784;BME280;57054;51.978;4.498;2023-10-08T07:23:28;102560.22;;;15.41;100.00
69784;BME280;57054;51.978;4.498;2023-10-08T07:26:01;102564.69;;;15.39;100.00
69784;BME280;57054;51.978;4.498;2023-10-08T07:28:45;102566.75;;;15.30;100.00
69784;BME280;57054;51.978;4.498;2023-10-08T07:31:20;102580.19;;;15.23;100.00
69784;BME280;57054;51.978;4.498;2023-10-08T07:33:54;102578.25;;;15.28;100.00
69784;BME280;57054;51.978;4.498;2023-10-08T07:36:41;102584.75;;;15.18;100.00
69784;BME280;57054;51.978;4.498;2023-10-08T07:39:07;102576.38;;;15.05;100.00
69784;BME280;57054;51.978;4.498;2023-10-08T07:41:34;102580.78;;;15.04;100.00
69784;BME280;57054;51.978;4.498;2023-10-08T07:43:59;102584.03;;;15.12;100.00
69784;BME280;57054;51.978;4.498;2023-10-08T07:46:25;102585.72;;;15.15;100.00
69784;BME280;57054;51.978;4.498;2023-10-08T07:48:54;102591.16;;;15.10;100.00
69784;BME280;57054;51.978;4.498;2023-10-08T07:51:20;102609.47;;;15.15;100.00
69784;BME280;57054;51.978;4.498;2023-10-08T07:53:51;102608.94;;;15.04;100.00
69784;BME280;57054;51.978;4.498;2023-10-08T07:56:22;102604.44;;;15.07;100.00
69784;BME280;57054;51.978;4.498;2023-10-08T07:58:47;102596.03;;;14.94;100.00
69784;BME280;57054;51.978;4.498;2023-10-08T08:01:13;102593.28;;;14.99;100.00
69784;BME280;57054;51.978;4.498;2023-10-08T08:03:39;102599.97;;;15.09;100.00
69784;BME280;57054;51.978;4.498;2023-10-08T08:06:07;102595.56;;;15.10;100.00
69784;BME280;57054;51.978;4.498;2023-10-08T08:08:37;102598.13;;;15.11;100.00
69784;BME280;57054;51.978;4.498;2023-10-08T08:11:06;102601.69;;;15.10;100.00
69784;BME280;57054;51.978;4.498;2023-10-08T08:13:38;102606.81;;;15.15;100.00
69784;BME280;57054;51.978;4.498;2023-10-08T08:16:04;102605.16;;;15.12;100.00
69784;BME280;57054;51.978;4.498;2023-10-08T08:18:43;102603.38;;;15.13;100.00
69784;BME280;57054;51.978;4.498;2023-10-08T08:21:13;102610.22;;;15.19;100.00
69784;BME280;57054;51.978;4.498;2023-10-08T08:23:46;102612.09;;;15.15;100.00
69784;BME280;57054;51.978;4.498;2023-10-08T08:29:01;102629.72;;;15.14;100.00
69784;BME280;57054;51.978;4.498;2023-10-08T08:31:30;102634.09;;;15.15;100.00
69784;BME280;57054;51.978;4.498;2023-10-08T08:34:01;102634.00;;;15.17;100.00
69784;BME280;57054;51.978;4.498;2023-10-08T08:36:29;102644.56;;;15.17;100.00
69784;BME280;57054;51.978;4.498;2023-10-08T08:38:57;102640.94;;;15.21;100.00
69784;BME280;57054;51.978;4.498;2023-10-08T08:41:22;102640.13;;;15.19;100.00
69784;BME280;57054;51.978;4.498;2023-10-08T08:43:52;102632.22;;;15.19;100.00
69784;BME280;57054;51.978;4.498;2023-10-08T08:46:30;102634.88;;;15.19;100.00
69784;BME280;57054;51.978;4.498;2023-10-08T08:49:00;102638.72;;;15.07;100.00
69784;BME280;57054;51.978;4.498;2023-10-08T08:51:26;102641.44;;;15.04;100.00
69784;BME280;57054;51.978;4.498;2023-10-08T08:53:52;102639.59;;;15.08;100.00
69784;BME280;57054;51.978;4.498;2023-10-08T08:56:18;102635.25;;;15.07;100.00
69784;BME280;57054;51.978;4.498;2023-10-08T08:58:44;102638.72;;;15.07;100.00
69784;BME280;57054;51.978;4.498;2023-10-08T09:01:12;102642.91;;;15.14;100.00
69784;BME280;57054;51.978;4.498;2023-10-08T09:03:39;102642.88;;;15.16;100.00
69784;BME280;57054;51.978;4.498;2023-10-08T09:06:05;102645.63;;;15.11;100.00
69784;BME280;57054;51.978;4.498;2023-10-08T09:08:35;102642.19;;;15.09;100.00
69784;BME280;57054;51.978;4.498;2023-10-08T09:11:02;102642.06;;;15.14;100.00
69784;BME280;57054;51.978;4.498;2023-10-08T09:13:31;102636.06;;;15.09;100.00
69784;BME280;57054;51.978;4.498;2023-10-08T09:16:03;102639.69;;;15.05;100.00
69784;BME280;57054;51.978;4.498;2023-10-08T09:18:32;102629.97;;;15.07;100.00
69784;BME280;57054;51.978;4.498;2023-10-08T09:21:07;102625.50;;;15.09;100.00
69784;BME280;57054;51.978;4.498;2023-10-08T09:23:42;102630.69;;;15.12;100.00
69784;BME280;57054;51.978;4.498;2023-10-08T09:26:13;102631.47;;;15.15;100.00
69784;BME280;57054;51.978;4.498;2023-10-08T09:28:45;102628.75;;;15.17;100.00
69784;BME280;57054;51.978;4.498;2023-10-08T09:31:12;102629.59;;;15.19;100.00
69784;BME280;57054;51.978;4.498;2023-10-08T09:33:38;102631.47;;;15.15;100.00
69784;BME280;57054;51.978;4.498;2023-10-08T09:36:04;102627.81;;;15.20;100.00
69784;BME280;57054;51.978;4.498;2023-10-08T09:38:30;102636.53;;;15.22;100.00
69784;BME280;57054;51.978;4.498;2023-10-08T09:40:58;102652.28;;;15.25;100.00
69784;BME280;57054;51.978;4.498;2023-10-08T09:43:26;102641.59;;;15.28;100.00
69784;BME280;57054;51.978;4.498;2023-10-08T09:46:02;102636.41;;;15.26;100.00
69784;BME280;57054;51.978;4.498;2023-10-08T09:48:31;102625.72;;;15.29;100.00
69784;BME280;57054;51.978;4.498;2023-10-08T09:50:59;102625.47;;;15.37;100.00
69784;BME280;57054;51.978;4.498;2023-10-08T09:53:35;102631.59;;;15.39;100.00
69784;BME280;57054;51.978;4.498;2023-10-08T09:56:14;102635.88;;;15.42;100.00
69784;BME280;57054;51.978;4.498;2023-10-08T09:58:43;102628.78;;;15.44;100.00
69784;BME280;57054;51.978;4.498;2023-10-08T10:01:10;102631.38;;;15.45;100.00
69784;BME280;57054;51.978;4.498;2023-10-08T10:03:35;102629.50;;;15.49;100.00
69784;BME280;57054;51.978;4.498;2023-10-08T10:06:01;102638.22;;;15.51;100.00
69784;BME280;57054;51.978;4.498;2023-10-08T10:08:27;102630.25;;;15.52;100.00
69784;BME280;57054;51.978;4.498;2023-10-08T10:10:58;102624.06;;;15.53;100.00
69784;BME280;57054;51.978;4.498;2023-10-08T10:13:28;102624.88;;;15.55;100.00
69784;BME280;57054;51.978;4.498;2023-10-08T10:15:54;102632.00;;;15.53;100.00
69784;BME280;57054;51.978;4.498;2023-10-08T10:20:58;102631.78;;;15.60;100.00
69784;BME280;57054;51.978;4.498;2023-10-08T10:26:03;102640.41;;;15.65;100.00
69784;BME280;57054;51.978;4.498;2023-10-08T10:28:29;102647.31;;;15.69;100.00
69784;BME280;57054;51.978;4.498;2023-10-08T10:30:55;102649.09;;;15.68;100.00
69784;BME280;57054;51.978;4.498;2023-10-08T10:33:29;102647.31;;;15.69;100.00
69784;BME280;57054;51.978;4.498;2023-10-08T10:35:55;102642.59;;;15.79;100.00
69784;BME280;57054;51.978;4.498;2023-10-08T10:38:20;102646.13;;;15.79;100.00
69784;BME280;57054;51.978;4.498;2023-10-08T10:40:50;102639.03;;;15.81;100.00
69784;BME280;57054;51.978;4.498;2023-10-08T10:43:25;102645.09;;;15.83;100.00
69784;BME280;57054;51.978;4.498;2023-10-08T10:46:01;102644.13;;;15.86;100.00
69784;BME280;57054;51.978;4.498;2023-10-08T10:49:05;102645.91;;;15.85;100.00
69784;BME280;57054;51.978;4.498;2023-10-08T10:51:44;102640.69;;;15.84;100.00
69784;BME280;57054;51.978;4.498;2023-10-08T10:54:10;102633.59;;;15.84;100.00
69784;BME280;57054;51.978;4.498;2023-10-08T10:56:35;102640.53;;;15.88;100.00
69784;BME280;57054;51.978;4.498;2023-10-08T10:59:08;102637.53;;;15.99;100.00
69784;BME280;57054;51.978;4.498;2023-10-08T11:01:53;102635.75;;;16.00;100.00
69784;BME280;57054;51.978;4.498;2023-10-08T11:04:31;102625.16;;;16.00;100.00
69784;BME280;57054;51.978;4.498;2023-10-08T11:06:57;102627.75;;;16.01;100.00
69784;BME280;57054;51.978;4.498;2023-10-08T11:09:27;102623.19;;;16.06;100.00
69784;BME280;57054;51.978;4.498;2023-10-08T11:12:03;102623.06;;;16.09;100.00
69784;BME280;57054;51.978;4.498;2023-10-08T11:14:39;102619.44;;;16.12;100.00
69784;BME280;57054;51.978;4.498;2023-10-08T11:17:16;102611.47;;;16.14;100.00
69784;BME280;57054;51.978;4.498;2023-10-08T11:19:45;102606.94;;;16.17;100.00
69784;BME280;57054;51.978;4.498;2023-10-08T11:22:15;102614.69;;;16.22;100.00
69784;BME280;57054;51.978;4.498;2023-10-08T11:24:45;102613.59;;;16.27;100.00
69784;BME280;57054;51.978;4.498;2023-10-08T11:27:15;102608.25;;;16.29;100.00
69784;BME280;57054;51.978;4.498;2023-10-08T11:29:42;102615.00;;;16.38;100.00
69784;BME280;57054;51.978;4.498;2023-10-08T11:32:10;102611.41;;;16.39;100.00
69784;BME280;57054;51.978;4.498;2023-10-08T11:34:38;102622.00;;;16.39;100.00
69784;BME280;57054;51.978;4.498;2023-10-08T11:37:05;102622.88;;;16.39;100.00
69784;BME280;57054;51.978;4.498;2023-10-08T11:39:46;102611.31;;;16.42;100.00
69784;BME280;57054;51.978;4.498;2023-10-08T11:42:11;102613.84;;;16.45;100.00
69784;BME280;57054;51.978;4.498;2023-10-08T11:44:58;102613.72;;;16.48;100.00
69784;BME280;57054;51.978;4.498;2023-10-08T11:47:42;102607.81;;;16.41;100.00
69784;BME280;57054;51.978;4.498;2023-10-08T11:50:09;102613.94;;;16.42;100.00
69784;BME280;57054;51.978;4.498;2023-10-08T11:52:36;102616.31;;;16.49;100.00
69784;BME280;57054;51.978;4.498;2023-10-08T11:55:07;102619.84;;;16.50;100.00
69784;BME280;57054;51.978;4.498;2023-10-08T11:57:32;102609.47;;;16.44;100.00
69784;BME280;57054;51.978;4.498;2023-10-08T12:00:01;102612.06;;;16.45;100.00
69784;BME280;57054;51.978;4.498;2023-10-08T12:02:42;102605.91;;;16.45;100.00
69784;BME280;57054;51.978;4.498;2023-10-08T12:05:09;102611.81;;;16.51;100.00
69784;BME280;57054;51.978;4.498;2023-10-08T12:07:47;102594.06;;;16.55;100.00
69784;BME280;57054;51.978;4.498;2023-10-08T12:10:13;102590.50;;;16.56;100.00
69784;BME280;57054;51.978;4.498;2023-10-08T12:12:39;102586.00;;;16.58;100.00
69784;BME280;57054;51.978;4.498;2023-10-08T12:15:06;102580.72;;;16.58;100.00
69784;BME280;57054;51.978;4.498;2023-10-08T12:17:33;102573.41;;;16.65;100.00
69784;BME280;57054;51.978;4.498;2023-10-08T12:20:06;102568.13;;;16.65;100.00
69784;BME280;57054;51.978;4.498;2023-10-08T12:22:49;102564.59;;;16.64;100.00
69784;BME280;57054;51.978;4.498;2023-10-08T12:25:15;102551.47;;;16.63;100.00
69784;BME280;57054;51.978;4.498;2023-10-08T12:27:40;102562.84;;;16.65;100.00
69784;BME280;57054;51.978;4.498;2023-10-08T12:30:06;102555.75;;;16.65;100.00
69784;BME280;57054;51.978;4.498;2023-10-08T12:32:38;102549.41;;;16.69;100.00
69784;BME280;57054;51.978;4.498;2023-10-08T12:35:08;102546.72;;;16.71;100.00
69784;BME280;57054;51.978;4.498;2023-10-08T12:37:41;102546.72;;;16.71;100.00
69784;BME280;57054;51.978;4.498;2023-10-08T12:40:09;102540.56;;;16.70;100.00
69784;BME280;57054;51.978;4.498;2023-10-08T12:42:50;102536.19;;;16.69;100.00
69784;BME280;57054;51.978;4.498;2023-10-08T12:45:16;102534.34;;;16.72;100.00
69784;BME280;57054;51.978;4.498;2023-10-08T12:47:54;102526.28;;;16.75;100.00
69784;BME280;57054;51.978;4.498;2023-10-08T12:50:20;102523.75;;;16.72;100.00
69784;BME280;57054;51.978;4.498;2023-10-08T12:52:57;102522.81;;;16.74;100.00
69784;BME280;57054;51.978;4.498;2023-10-08T12:55:29;102515.53;;;16.79;100.00
69784;BME280;57054;51.978;4.498;2023-10-08T12:57:56;102513.69;;;16.81;100.00
69784;BME280;57054;51.978;4.498;2023-10-08T13:00:33;102514.47;;;16.85;100.00
69784;BME280;57054;51.978;4.498;2023-10-08T13:02:59;102508.22;;;16.86;100.00
69784;BME280;57054;51.978;4.498;2023-10-08T13:05:26;102501.03;;;16.89;100.00
69784;BME280;57054;51.978;4.498;2023-10-08T13:07:56;102501.81;;;16.92;100.00
69784;BME280;57054;51.978;4.498;2023-10-08T13:10:23;102508.78;;;16.94;100.00
69784;BME280;57054;51.978;4.498;2023-10-08T13:12:49;102500.78;;;16.96;100.00
69784;BME280;57054;51.978;4.498;2023-10-08T13:15:14;102511.19;;;17.00;100.00